Time;durP1;ratioP1;P1;durP2;ratioP2;P2;SDS_P1;SDS_P2;PMS_P1;PMS_P2;Temp;Humidity;BMP_temperature;BMP_pressure;BME280_temperature;BME280_humidity;BME280_pressure;Samples;Min_cycle;Max_cycle;Signal;HPM_P1;HPM_P2
2021/06/30 00:00:25;;;;;;;1.85;1.00;;;;;;;18.74;47.20;100691.81;3570659;40;20430;-73
2021/06/30 00:03:00;;;;;;;2.10;0.93;;;;;;;18.76;47.11;100698.03;3555664;40;20063;-72
2021/06/30 00:05:33;;;;;;;1.45;0.98;;;;;;;18.75;47.22;100706.53;3570283;40;20297;-73
2021/06/30 00:08:07;;;;;;;1.20;0.73;;;;;;;18.75;47.46;100704.59;3570420;40;20063;-73
2021/06/30 00:10:42;;;;;;;1.73;0.98;;;;;;;18.76;47.60;100697.16;3570230;40;20142;-73
2021/06/30 00:13:15;;;;;;;1.85;0.80;;;;;;;18.74;46.86;100710.34;3570854;40;20053;-72
2021/06/30 00:15:49;;;;;;;1.70;0.90;;;;;;;18.73;47.30;100706.69;3570447;40;20320;-72
2021/06/30 00:18:23;;;;;;;1.48;0.80;;;;;;;18.74;47.27;100704.78;3570263;40;20154;-73
2021/06/30 00:20:56;;;;;;;1.67;0.73;;;;;;;18.73;46.87;100698.38;3568800;40;20427;-72
2021/06/30 00:23:30;;;;;;;1.00;0.70;;;;;;;18.73;46.90;100701.16;3570631;40;20045;-72
2021/06/30 00:26:04;;;;;;;1.42;0.98;;;;;;;18.75;46.86;100689.91;3569774;40;20061;-72
2021/06/30 00:28:37;;;;;;;1.20;0.80;;;;;;;18.73;47.11;100690.06;3570398;40;20131;-72
2021/06/30 00:31:11;;;;;;;1.02;0.70;;;;;;;18.73;47.30;100679.00;3569863;40;20045;-72
2021/06/30 00:33:44;;;;;;;1.17;0.80;;;;;;;18.72;46.79;100655.09;3570882;40;20063;-72
2021/06/30 00:36:17;;;;;;;2.05;1.15;;;;;;;18.71;47.26;100664.47;3561108;40;20062;-72
2021/06/30 00:38:50;;;;;;;1.85;1.02;;;;;;;18.70;47.38;100659.97;3569913;40;20034;-72
2021/06/30 00:41:25;;;;;;;1.73;1.05;;;;;;;18.71;47.04;100664.47;3569358;40;20057;-73
2021/06/30 00:43:58;;;;;;;1.92;0.90;;;;;;;18.68;47.31;100656.53;3561256;40;20108;-72
2021/06/30 00:46:35;;;;;;;1.92;1.20;;;;;;;18.68;46.86;100653.78;3561150;40;20156;-73
2021/06/30 00:49:09;;;;;;;1.65;0.93;;;;;;;18.66;47.53;100649.47;3570122;40;20054;-73
2021/06/30 00:51:42;;;;;;;1.50;1.00;;;;;;;18.64;46.71;100648.78;3569785;40;20062;-75
2021/06/30 00:54:15;;;;;;;1.10;0.82;;;;;;;18.61;46.75;100643.63;3570154;40;20139;-72
2021/06/30 00:56:50;;;;;;;1.48;1.00;;;;;;;18.61;47.01;100652.78;3570032;40;20053;-72
2021/06/30 00:59:23;;;;;;;2.42;1.10;;;;;;;18.58;47.14;100655.09;3569573;40;20041;-72
2021/06/30 01:01:56;;;;;;;1.58;1.00;;;;;;;18.56;46.64;100663.59;3570369;40;20103;-73
2021/06/30 01:04:29;;;;;;;2.33;1.05;;;;;;;18.53;47.11;100660.31;3570000;40;20458;-73
2021/06/30 01:07:02;;;;;;;2.00;1.25;;;;;;;18.53;47.42;100660.31;3570077;40;20060;-72
2021/06/30 01:09:35;;;;;;;2.20;1.25;;;;;;;18.50;46.78;100658.81;3563091;40;20115;-72
2021/06/30 01:12:11;;;;;;;2.08;1.20;;;;;;;18.52;46.87;100653.09;3569486;40;20057;-72
2021/06/30 01:14:44;;;;;;;1.75;1.20;;;;;;;18.49;47.01;100650.69;3570276;40;20046;-73
2021/06/30 01:17:17;;;;;;;2.53;1.20;;;;;;;18.48;47.31;100648.97;3569207;40;20033;-72
2021/06/30 01:19:50;;;;;;;2.00;1.30;;;;;;;18.47;47.00;100650.00;3569676;40;20081;-72
2021/06/30 01:22:24;;;;;;;2.15;1.20;;;;;;;18.46;47.02;100649.16;3569108;40;20057;-72
2021/06/30 01:24:59;;;;;;;2.30;1.38;;;;;;;18.43;46.46;100644.88;3569686;40;20072;-72
2021/06/30 01:27:34;;;;;;;1.98;1.17;;;;;;;18.42;46.90;100647.81;3569413;40;20045;-72
2021/06/30 01:30:08;;;;;;;2.90;1.38;;;;;;;18.39;47.13;100639.88;3569803;40;20143;-72
2021/06/30 01:32:41;;;;;;;2.55;1.50;;;;;;;18.36;47.30;100643.03;3568985;40;20131;-72
2021/06/30 01:38:05;;;;;;;2.53;1.42;;;;;;;18.34;47.14;100634.91;3577903;40;20056;-73
2021/06/30 01:40:40;;;;;;;2.78;1.35;;;;;;;18.34;47.15;100637.69;3571812;40;20061;-73
2021/06/30 01:43:13;;;;;;;2.33;1.50;;;;;;;18.32;46.97;100642.56;3588847;40;20043;-72
2021/06/30 01:45:46;;;;;;;2.67;1.52;;;;;;;18.31;47.39;100634.44;3589108;40;20167;-73
2021/06/30 01:48:20;;;;;;;2.65;1.70;;;;;;;18.31;47.02;100642.72;3589099;40;20055;-73
2021/06/30 01:50:49;;;;;;;3.42;1.58;;;;;;;18.32;47.13;100647.22;3556825;40;20411;-73
2021/06/30 01:53:22;;;;;;;2.72;1.70;;;;;;;18.31;47.03;100645.50;3579558;40;20037;-73
2021/06/30 01:55:56;;;;;;;3.42;1.77;;;;;;;18.35;47.35;100641.31;3580838;40;20272;-73
2021/06/30 01:58:24;;;;;;;2.67;1.65;;;;;;;18.32;47.28;100642.56;3542756;40;20143;-73
2021/06/30 02:00:57;;;;;;;3.33;1.67;;;;;;;18.32;47.74;100644.47;3559211;40;20400;-74
2021/06/30 02:03:31;;;;;;;2.72;1.60;;;;;;;18.32;47.76;100656.41;3558898;40;20038;-73
2021/06/30 02:06:04;;;;;;;4.13;1.75;;;;;;;18.32;47.38;100645.31;3550673;40;20049;-73
2021/06/30 02:08:37;;;;;;;3.10;1.60;;;;;;;18.33;47.20;100643.41;3559173;40;20041;-73
2021/06/30 02:11:11;;;;;;;3.20;1.63;;;;;;;18.34;47.57;100637.69;3558923;40;20409;-72
2021/06/30 02:13:44;;;;;;;3.50;1.73;;;;;;;18.31;47.08;100629.75;3565449;40;20034;-73
2021/06/30 02:16:17;;;;;;;3.65;1.95;;;;;;;18.32;47.86;100631.47;3542176;40;20070;-74
2021/06/30 02:18:50;;;;;;;4.18;2.00;;;;;;;18.32;47.46;100631.47;3564941;40;20042;-73
2021/06/30 02:21:23;;;;;;;3.20;1.85;;;;;;;18.32;47.33;100636.16;3564350;40;20120;-73
2021/06/30 02:23:56;;;;;;;3.67;2.08;;;;;;;18.31;47.16;100626.13;3559009;40;20188;-72
2021/06/30 02:26:33;;;;;;;3.28;1.70;;;;;;;18.33;47.77;100621.25;3558539;40;20036;-73
2021/06/30 02:29:06;;;;;;;3.67;2.13;;;;;;;18.31;47.26;100628.88;3565387;40;20069;-73
2021/06/30 02:31:39;;;;;;;4.07;2.20;;;;;;;18.30;46.85;100630.78;3560107;40;20038;-73
2021/06/30 02:34:12;;;;;;;3.53;2.08;;;;;;;18.29;47.18;100630.97;3552008;40;20383;-73
2021/06/30 02:36:45;;;;;;;3.40;2.10;;;;;;;18.29;47.89;100634.59;3560007;40;20125;-74
2021/06/30 02:39:18;;;;;;;3.67;2.08;;;;;;;18.29;47.53;100626.31;3559971;40;20372;-73
2021/06/30 02:41:52;;;;;;;4.25;2.33;;;;;;;18.30;47.52;100628.03;3577333;40;20041;-72
2021/06/30 02:44:20;;;;;;;4.07;1.88;;;;;;;18.29;47.71;100633.75;3563611;40;20051;-73
2021/06/30 02:46:54;;;;;;;3.80;2.25;;;;;;;18.28;47.25;100634.78;3581377;40;20045;-72
2021/06/30 02:49:26;;;;;;;3.20;1.80;;;;;;;18.25;47.38;100633.28;3586549;40;20045;-72
2021/06/30 02:52:00;;;;;;;3.13;1.80;;;;;;;18.26;47.32;100632.22;3600292;40;20149;-73
2021/06/30 02:54:33;;;;;;;2.85;1.80;;;;;;;18.25;47.48;100626.88;3592308;40;20036;-72
2021/06/30 02:57:04;;;;;;;3.85;1.70;;;;;;;18.26;48.09;100614.75;3565902;40;20042;-72
2021/06/30 02:59:37;;;;;;;2.83;1.52;;;;;;;18.23;47.95;100623.44;3592468;40;20040;-73
2021/06/30 03:02:10;;;;;;;2.38;1.40;;;;;;;18.23;47.27;100620.66;3591992;40;20037;-73
2021/06/30 03:04:43;;;;;;;2.92;1.30;;;;;;;18.22;47.34;100621.72;3569895;40;20061;-72
2021/06/30 03:07:16;;;;;;;2.60;1.50;;;;;;;18.22;47.59;100624.47;3570483;40;20029;-72
2021/06/30 03:09:49;;;;;;;2.67;1.52;;;;;;;18.21;48.05;100629.16;3589446;40;20562;-72
2021/06/30 03:12:24;;;;;;;2.45;1.17;;;;;;;18.22;47.84;100630.00;3591504;40;20032;-72
2021/06/30 03:14:57;;;;;;;2.60;1.50;;;;;;;18.19;47.16;100634.03;3590609;40;20040;-72
2021/06/30 03:17:33;;;;;;;3.42;1.52;;;;;;;18.18;47.34;100632.31;3591877;40;20045;-72
2021/06/30 03:20:09;;;;;;;3.08;1.65;;;;;;;18.20;48.07;100634.88;3592102;40;20364;-72
2021/06/30 03:22:44;;;;;;;3.30;1.60;;;;;;;18.17;47.86;100627.81;3569672;40;20094;-72
2021/06/30 03:25:17;;;;;;;3.10;1.75;;;;;;;18.15;47.75;100627.13;3598942;40;20422;-73
2021/06/30 03:27:51;;;;;;;2.78;1.63;;;;;;;18.17;47.79;100632.50;3591554;40;20052;-72
2021/06/30 03:30:19;;;;;;;3.30;1.67;;;;;;;18.14;47.26;100628.19;3591702;40;20033;-73
2021/06/30 03:32:52;;;;;;;3.17;1.73;;;;;;;18.13;47.09;100639.44;3591428;40;20122;-74
2021/06/30 03:35:25;;;;;;;3.35;1.60;;;;;;;18.13;47.12;100636.66;3591759;40;20048;-73
2021/06/30 03:37:58;;;;;;;2.95;1.55;;;;;;;18.12;47.37;100634.94;3591884;40;20037;-72
2021/06/30 03:40:32;;;;;;;3.53;1.52;;;;;;;18.11;47.62;100647.97;3591350;40;20491;-73
2021/06/30 03:43:06;;;;;;;2.97;1.75;;;;;;;18.11;47.92;100641.56;3591432;40;20037;-72
2021/06/30 03:45:39;;;;;;;3.25;1.60;;;;;;;18.10;47.39;100646.22;3581450;40;20122;-72
2021/06/30 03:48:08;;;;;;;2.25;1.20;;;;;;;18.10;47.72;100650.91;3554827;40;20057;-72
2021/06/30 03:50:36;;;;;;;3.00;1.50;;;;;;;18.09;47.78;100652.81;3562991;40;20124;-73
2021/06/30 03:53:09;;;;;;;1.90;1.30;;;;;;;18.08;47.48;100653.00;3581299;40;20056;-73
2021/06/30 03:55:42;;;;;;;2.67;1.15;;;;;;;18.05;47.80;100651.44;3581468;40;20049;-73
2021/06/30 03:58:16;;;;;;;3.08;1.20;;;;;;;18.05;47.71;100651.44;3582775;40;20032;-73
2021/06/30 04:00:49;;;;;;;1.88;1.10;;;;;;;18.03;47.74;100650.75;3599428;39;20036;-72
2021/06/30 04:03:22;;;;;;;3.38;1.05;;;;;;;18.02;47.45;100651.81;3591399;40;20068;-73
2021/06/30 04:05:55;;;;;;;2.35;1.10;;;;;;;18.00;47.76;100648.34;3591133;40;20072;-73
2021/06/30 04:08:29;;;;;;;1.38;1.05;;;;;;;17.99;47.36;100647.50;3591430;40;20084;-73
2021/06/30 04:11:02;;;;;;;1.50;0.85;;;;;;;17.98;47.29;100655.97;3590253;40;20473;-73
2021/06/30 04:13:36;;;;;;;3.95;1.10;;;;;;;17.98;47.37;100653.22;3591702;40;20028;-72
2021/06/30 04:16:09;;;;;;;1.70;0.90;;;;;;;17.96;47.61;100647.84;3591511;40;20041;-72
2021/06/30 04:18:42;;;;;;;2.92;1.20;;;;;;;17.95;47.60;100646.13;3598584;40;20045;-72
2021/06/30 04:21:15;;;;;;;1.60;0.93;;;;;;;17.95;47.30;100645.28;3590191;40;20048;-72
2021/06/30 04:23:49;;;;;;;1.63;0.98;;;;;;;17.94;47.75;100638.03;3591139;40;20040;-72
2021/06/30 04:26:17;;;;;;;2.55;1.00;;;;;;;17.94;47.71;100638.91;3573033;40;20154;-71
2021/06/30 04:28:47;;;;;;;1.65;0.70;;;;;;;17.96;47.88;100634.00;3556392;40;20036;-72
2021/06/30 04:31:20;;;;;;;1.98;1.00;;;;;;;17.95;47.43;100636.97;3590682;40;20441;-72
2021/06/30 04:33:53;;;;;;;1.85;1.00;;;;;;;17.95;47.68;100636.97;3590858;40;20039;-72
2021/06/30 04:36:26;;;;;;;2.30;0.90;;;;;;;17.95;47.60;100639.72;3581996;40;20075;-72
2021/06/30 04:39:00;;;;;;;3.28;1.10;;;;;;;17.96;48.08;100641.47;3580953;40;20042;-72
2021/06/30 04:41:33;;;;;;;1.60;0.98;;;;;;;17.95;47.87;100637.81;3581159;40;20045;-72
2021/06/30 04:44:07;;;;;;;2.13;0.85;;;;;;;17.97;47.84;100634.88;3581000;40;20053;-72
2021/06/30 04:46:40;;;;;;;2.25;1.30;;;;;;;17.97;47.94;100635.75;3581201;40;20049;-72
2021/06/30 04:49:14;;;;;;;1.83;0.95;;;;;;;17.96;47.83;100625.72;3583543;40;20423;-72
2021/06/30 04:51:44;;;;;;;2.55;1.05;;;;;;;17.97;48.35;100621.91;3570416;40;20041;-72
2021/06/30 04:54:18;;;;;;;1.90;1.00;;;;;;;17.97;47.81;100629.34;3580915;40;20061;-72
2021/06/30 04:56:51;;;;;;;1.55;0.88;;;;;;;17.98;47.66;100629.16;3589946;40;20080;-72
2021/06/30 04:59:25;;;;;;;2.33;1.00;;;;;;;18.01;48.44;100625.16;3590864;40;20068;-71
2021/06/30 05:01:58;;;;;;;2.30;1.35;;;;;;;17.99;47.70;100625.34;3591316;40;20126;-72
2021/06/30 05:04:26;;;;;;;3.40;1.25;;;;;;;18.00;48.41;100629.84;3564180;40;20048;-71
2021/06/30 05:06:54;;;;;;;2.25;1.10;;;;;;;18.02;48.30;100629.66;3555973;40;20403;-71
2021/06/30 05:09:31;;;;;;;2.15;1.20;;;;;;;18.02;48.39;100629.66;3589610;40;20032;-72
2021/06/30 05:12:05;;;;;;;2.22;1.20;;;;;;;18.04;48.41;100631.22;3590342;40;20114;-72
2021/06/30 05:14:39;;;;;;;2.00;1.23;;;;;;;18.07;48.38;100629.97;3578482;40;20115;-72
2021/06/30 05:17:12;;;;;;;2.55;1.42;;;;;;;18.06;48.07;100626.34;3578587;40;20131;-72
2021/06/30 05:19:47;;;;;;;2.70;1.40;;;;;;;18.09;48.56;100627.91;3573856;40;20041;-72
2021/06/30 05:22:20;;;;;;;2.83;1.42;;;;;;;18.09;48.25;100627.91;3576704;40;20424;-72
2021/06/30 05:24:53;;;;;;;1.80;1.15;;;;;;;18.12;48.13;100632.19;3578562;40;20060;-72
2021/06/30 05:27:27;;;;;;;2.83;1.38;;;;;;;18.12;48.20;100630.28;3578213;40;20464;-73
2021/06/30 05:30:01;;;;;;;2.45;1.35;;;;;;;18.16;48.93;100630.78;3586330;40;20036;-72
2021/06/30 05:32:34;;;;;;;3.15;1.20;;;;;;;18.15;48.75;100634.59;3589971;40;20425;-72
2021/06/30 05:35:08;;;;;;;3.42;1.40;;;;;;;18.16;48.39;100630.78;3589920;40;20391;-72
2021/06/30 05:37:41;;;;;;;2.10;1.05;;;;;;;18.17;48.64;100638.91;3589961;40;20468;-72
2021/06/30 05:40:11;;;;;;;2.75;1.40;;;;;;;18.19;48.42;100631.28;3554860;40;20040;-72
2021/06/30 05:42:39;;;;;;;2.55;1.13;;;;;;;18.19;48.21;100636.81;3561397;40;20021;-72
2021/06/30 05:45:16;;;;;;;2.30;1.17;;;;;;;18.23;48.49;100640.03;3577484;40;20034;-73
2021/06/30 05:47:50;;;;;;;2.25;1.23;;;;;;;18.22;48.73;100638.31;3577706;40;20076;-73
2021/06/30 05:50:23;;;;;;;3.20;1.50;;;;;;;18.23;48.56;100634.50;3586484;40;20140;-72
2021/06/30 05:52:57;;;;;;;2.78;1.33;;;;;;;18.24;48.75;100639.88;3579873;40;20122;-72
2021/06/30 05:55:30;;;;;;;2.83;1.50;;;;;;;18.24;48.61;100637.09;3588256;40;20052;-72
2021/06/30 05:58:03;;;;;;;2.63;1.48;;;;;;;18.25;48.43;100638.81;3588355;40;20100;-72
2021/06/30 06:00:38;;;;;;;3.03;1.33;;;;;;;18.26;48.22;100635.00;3580281;40;20048;-72
2021/06/30 06:03:11;;;;;;;3.63;1.60;;;;;;;18.25;49.00;100627.75;3588127;40;20110;-72
2021/06/30 06:05:44;;;;;;;2.33;1.20;;;;;;;18.25;48.47;100643.50;3588728;40;20461;-72
2021/06/30 06:08:17;;;;;;;3.10;1.40;;;;;;;18.26;48.67;100642.44;3588374;40;20063;-71
2021/06/30 06:10:51;;;;;;;3.30;1.35;;;;;;;18.26;48.41;100637.78;3587393;40;20045;-72
2021/06/30 06:13:24;;;;;;;2.58;1.20;;;;;;;18.27;48.36;100645.03;3587686;40;20084;-71
2021/06/30 06:15:58;;;;;;;2.55;1.55;;;;;;;18.30;48.27;100643.78;3584627;40;20040;-71
2021/06/30 06:18:31;;;;;;;3.00;1.23;;;;;;;18.29;48.07;100639.28;3579806;40;20057;-71
2021/06/30 06:21:00;;;;;;;2.50;1.30;;;;;;;18.30;48.50;100639.09;3541177;40;20044;-71
2021/06/30 06:23:33;;;;;;;3.20;1.40;;;;;;;18.30;48.64;100630.78;3578714;40;20093;-65
2021/06/30 06:26:06;;;;;;;1.98;1.30;;;;;;;18.30;48.27;100638.25;3581100;40;20061;-70
2021/06/30 06:28:39;;;;;;;3.58;1.40;;;;;;;18.31;48.25;100638.06;3591424;40;20064;-72
2021/06/30 06:31:15;;;;;;;3.85;1.52;;;;;;;18.35;48.82;100639.41;3599498;39;20040;-69
2021/06/30 06:33:49;;;;;;;3.10;1.52;;;;;;;18.36;48.93;100643.88;3583026;40;20416;-70
2021/06/30 06:36:22;;;;;;;3.30;1.20;;;;;;;18.39;48.64;100643.50;3582767;40;20056;-70
2021/06/30 06:38:55;;;;;;;3.70;1.50;;;;;;;18.42;49.37;100643.16;3588878;40;20618;-73
2021/06/30 06:41:28;;;;;;;3.00;1.20;;;;;;;18.46;48.94;100643.59;3580949;40;20037;-73
2021/06/30 06:44:03;;;;;;;1.92;1.27;;;;;;;18.51;48.69;100638.38;3560192;40;20083;-73
2021/06/30 06:46:39;;;;;;;2.17;1.38;;;;;;;18.54;48.75;100631.59;3587857;40;20095;-75
2021/06/30 06:49:13;;;;;;;3.03;1.50;;;;;;;18.54;49.00;100637.97;3591865;39;20257;-73
2021/06/30 06:51:46;;;;;;;3.33;1.70;;;;;;;18.57;48.43;100636.75;3594375;40;20138;-73
2021/06/30 06:54:19;;;;;;;2.45;1.67;;;;;;;18.61;48.29;100643.63;3598499;40;20504;-73
2021/06/30 06:56:52;;;;;;;2.85;1.98;;;;;;;18.63;48.00;100644.28;3596435;40;20060;-73
2021/06/30 06:59:25;;;;;;;3.25;1.80;;;;;;;18.64;48.51;100654.34;3588124;40;20048;-73
2021/06/30 07:01:59;;;;;;;3.25;2.20;;;;;;;18.68;48.25;100641.84;3588788;40;20044;-73
2021/06/30 07:04:33;;;;;;;3.75;2.10;;;;;;;18.67;48.58;100640.09;3585703;40;20327;-73
2021/06/30 07:07:06;;;;;;;2.90;2.00;;;;;;;18.70;48.03;100650.78;3588836;40;20587;-73
2021/06/30 07:09:39;;;;;;;3.67;1.85;;;;;;;18.70;48.46;100648.88;3589817;40;20051;-72
2021/06/30 07:12:12;;;;;;;3.00;1.77;;;;;;;18.72;47.96;100657.88;3590082;40;20096;-73
2021/06/30 07:14:45;;;;;;;3.75;1.92;;;;;;;18.73;47.75;100661.50;3577893;40;20049;-73
2021/06/30 07:17:19;;;;;;;3.00;1.83;;;;;;;18.75;47.55;100665.81;3578985;40;20347;-73
2021/06/30 07:19:52;;;;;;;2.92;1.67;;;;;;;18.74;47.83;100661.31;3579285;40;20045;-72
2021/06/30 07:22:25;;;;;;;2.60;1.60;;;;;;;18.76;48.09;100669.44;3577535;40;20049;-73
2021/06/30 07:24:58;;;;;;;2.25;1.58;;;;;;;18.75;47.97;100676.03;3569715;40;20065;-73
2021/06/30 07:27:32;;;;;;;2.50;1.52;;;;;;;18.75;48.20;100678.81;3571552;40;20112;-73
2021/06/30 07:30:06;;;;;;;2.50;1.60;;;;;;;18.77;47.95;100679.50;3579524;40;20057;-73
2021/06/30 07:32:41;;;;;;;2.50;1.38;;;;;;;18.78;47.42;100670.09;3579531;40;20085;-73
2021/06/30 07:38:13;;;;;;;1.88;1.20;;;;;;;18.75;47.59;100676.03;3634659;22;20032;-71
2021/06/30 07:40:46;;;;;;;2.45;1.40;;;;;;;18.77;47.87;100682.25;3594417;40;20092;-71
2021/06/30 07:43:15;;;;;;;2.45;1.50;;;;;;;18.77;47.83;100680.31;3569827;40;20416;-71
2021/06/30 07:45:43;;;;;;;2.38;1.50;;;;;;;18.75;47.47;100687.97;3601983;40;20060;-72
2021/06/30 07:48:13;;;;;;;2.58;1.60;;;;;;;18.76;47.61;100694.38;3592559;40;20047;-72
2021/06/30 07:50:41;;;;;;;2.30;1.45;;;;;;;18.71;47.37;100685.75;3596075;40;20067;-72
2021/06/30 07:53:10;;;;;;;2.00;1.25;;;;;;;18.70;47.31;100678.50;3592239;40;20052;-72
2021/06/30 07:55:38;;;;;;;1.73;1.20;;;;;;;18.69;47.56;100680.41;3583230;40;20052;-71
2021/06/30 07:58:07;;;;;;;2.20;1.27;;;;;;;18.68;47.62;100675.09;3601774;40;20047;-71
2021/06/30 08:00:35;;;;;;;1.55;1.00;;;;;;;18.69;48.06;100672.09;3601141;40;20040;-72
2021/06/30 08:03:04;;;;;;;2.38;1.15;;;;;;;18.68;47.81;100670.41;3599442;40;20084;-71
2021/06/30 08:05:34;;;;;;;2.40;1.13;;;;;;;18.74;47.65;100682.63;3596673;40;20048;-71
2021/06/30 08:08:04;;;;;;;3.17;1.30;;;;;;;18.74;47.51;100675.19;3600550;40;20061;-71
2021/06/30 08:10:33;;;;;;;1.45;0.98;;;;;;;18.77;47.70;100672.00;3574439;40;20074;-72
2021/06/30 08:13:02;;;;;;;0.85;0.73;;;;;;;18.77;47.22;100673.94;3591722;40;20056;-71
2021/06/30 08:15:30;;;;;;;1.92;1.00;;;;;;;18.77;47.34;100666.47;3591328;40;20048;-72
2021/06/30 08:18:00;;;;;;;1.55;0.80;;;;;;;18.78;47.21;100671.00;3591147;40;20133;-71
2021/06/30 08:20:29;;;;;;;1.20;0.90;;;;;;;18.79;47.19;100671.84;3586987;40;20129;-72
2021/06/30 08:22:58;;;;;;;1.25;0.80;;;;;;;18.81;47.29;100670.63;3593028;40;20063;-71
2021/06/30 08:25:27;;;;;;;1.30;0.75;;;;;;;18.81;47.07;100678.06;3592226;40;20392;-71
2021/06/30 08:27:59;;;;;;;1.58;0.77;;;;;;;18.83;47.24;100678.75;3591939;40;20063;-72
2021/06/30 08:30:28;;;;;;;0.85;0.80;;;;;;;18.85;47.48;100673.03;3592037;40;20060;-71
2021/06/30 08:32:56;;;;;;;0.88;0.60;;;;;;;18.87;47.41;100682.84;3591984;40;20504;-72
2021/06/30 08:35:24;;;;;;;1.23;0.80;;;;;;;18.88;47.39;100669.84;3591912;40;20419;-71
2021/06/30 08:37:54;;;;;;;1.00;0.77;;;;;;;18.93;47.62;100678.47;3590969;40;20133;-71
2021/06/30 08:40:24;;;;;;;1.45;0.85;;;;;;;18.97;47.00;100674.25;3591361;40;20045;-71
2021/06/30 08:42:52;;;;;;;1.75;0.70;;;;;;;18.98;46.87;100678.75;3591014;40;20319;-72
2021/06/30 08:45:20;;;;;;;0.85;0.60;;;;;;;19.01;47.14;100678.38;3591560;40;20052;-72
2021/06/30 08:47:50;;;;;;;1.02;0.60;;;;;;;19.03;46.78;100681.78;3590705;40;20052;-72
2021/06/30 08:50:19;;;;;;;1.35;0.70;;;;;;;19.03;47.12;100666.00;3589812;40;20044;-71
2021/06/30 08:52:49;;;;;;;1.20;0.70;;;;;;;19.07;46.61;100672.03;3591535;40;20078;-71
2021/06/30 08:55:38;;;;;;;1.45;0.70;;;;;;;19.08;46.84;100682.94;3591532;40;20052;-71
2021/06/30 08:58:07;;;;;;;1.07;0.70;;;;;;;19.04;46.77;100673.28;3582516;40;20049;-72
2021/06/30 09:00:35;;;;;;;1.60;1.00;;;;;;;19.06;46.05;100676.72;3591538;40;20044;-72
2021/06/30 09:03:04;;;;;;;1.52;0.90;;;;;;;19.05;46.09;100685.22;3582001;40;20060;-71
2021/06/30 09:08:21;;;;;;;2.60;1.40;;;;;;;19.03;46.64;100671.56;3568730;40;20063;-72
2021/06/30 09:10:50;;;;;;;2.38;1.35;;;;;;;19.07;46.56;100669.28;3590968;40;20418;-72
2021/06/30 09:13:20;;;;;;;2.30;1.23;;;;;;;19.09;46.66;100673.59;3591086;40;20053;-71
2021/06/30 09:15:57;;;;;;;1.95;1.08;;;;;;;19.16;46.73;100679.22;3589801;40;20109;-72
2021/06/30 09:18:29;;;;;;;2.03;1.15;;;;;;;19.18;47.01;100689.03;3600643;40;20052;-71
2021/06/30 09:21:18;;;;;;;1.23;0.90;;;;;;;19.24;46.14;100689.34;3600507;39;20044;-71
2021/06/30 09:23:57;;;;;;;1.60;0.90;;;;;;;19.28;46.24;100696.19;3601305;40;20136;-71
2021/06/30 09:26:27;;;;;;;1.85;1.00;;;;;;;19.31;46.35;100701.38;3600630;40;20055;-71
2021/06/30 09:29:02;;;;;;;2.10;1.10;;;;;;;19.35;45.56;100716.59;3600841;39;20060;-71
2021/06/30 09:31:31;;;;;;;2.60;1.00;;;;;;;19.34;45.88;100706.53;3590573;40;20048;-72
2021/06/30 09:34:00;;;;;;;2.25;1.00;;;;;;;19.35;45.92;100711.88;3590474;40;20059;-72
2021/06/30 09:36:31;;;;;;;2.13;1.00;;;;;;;19.39;45.34;100712.34;3600297;40;20045;-72
2021/06/30 09:39:08;;;;;;;2.22;1.05;;;;;;;19.42;45.38;100718.38;3600100;40;20063;-71
2021/06/30 09:41:39;;;;;;;1.95;1.00;;;;;;;19.42;44.77;100714.75;3581056;40;20044;-72
2021/06/30 09:44:09;;;;;;;1.20;0.70;;;;;;;19.42;45.15;100723.09;3590914;40;20433;-72
2021/06/30 09:46:39;;;;;;;1.58;0.80;;;;;;;19.37;44.77;100723.63;3590727;40;20283;-71
2021/06/30 09:49:09;;;;;;;2.13;0.85;;;;;;;19.36;44.98;100723.81;3584076;40;20050;-71
2021/06/30 09:51:37;;;;;;;1.50;0.65;;;;;;;19.33;44.83;100727.00;3599604;40;20063;-71
2021/06/30 09:54:08;;;;;;;0.90;0.50;;;;;;;19.33;44.89;100724.22;3600608;40;20043;-71
2021/06/30 09:56:39;;;;;;;1.58;0.73;;;;;;;19.33;44.69;100725.09;3568555;40;20049;-71
2021/06/30 09:59:23;;;;;;;1.85;0.70;;;;;;;19.29;44.36;100729.28;3598834;40;20060;-72
2021/06/30 10:01:54;;;;;;;1.45;0.75;;;;;;;19.24;44.73;100725.38;3590643;40;20088;-71
2021/06/30 10:04:26;;;;;;;1.30;0.68;;;;;;;19.21;44.56;100726.63;3590610;40;20052;-71
2021/06/30 10:06:59;;;;;;;1.55;0.90;;;;;;;19.18;45.13;100727.84;3580778;40;20145;-71
2021/06/30 10:09:28;;;;;;;1.67;0.95;;;;;;;19.12;44.96;100733.31;3590327;40;20080;-72
2021/06/30 10:12:00;;;;;;;1.65;0.82;;;;;;;19.13;45.54;100744.22;3590349;40;20057;-72
2021/06/30 10:14:29;;;;;;;2.08;1.00;;;;;;;19.08;45.08;100743.94;3590420;40;20048;-71
2021/06/30 10:16:58;;;;;;;2.08;0.90;;;;;;;19.08;45.25;100735.63;3590228;40;20049;-72
2021/06/30 10:19:27;;;;;;;1.33;0.70;;;;;;;19.08;45.43;100745.84;3594701;40;20391;-72
2021/06/30 10:21:55;;;;;;;1.15;0.77;;;;;;;19.06;45.51;100748.81;3600307;40;20399;-72
2021/06/30 10:24:24;;;;;;;1.42;0.70;;;;;;;19.05;45.72;100744.31;3600447;40;20048;-72
2021/06/30 10:26:53;;;;;;;2.65;1.00;;;;;;;19.07;45.55;100741.34;3600315;40;20430;-72
2021/06/30 10:29:29;;;;;;;2.00;1.00;;;;;;;19.08;45.31;100743.09;3600228;39;20048;-73
2021/06/30 10:31:59;;;;;;;1.83;1.10;;;;;;;19.05;45.05;100741.53;3592445;40;20058;-72
2021/06/30 10:34:37;;;;;;;2.40;1.15;;;;;;;19.06;44.84;100737.72;3568194;40;20448;-72
2021/06/30 10:37:18;;;;;;;2.00;1.02;;;;;;;19.07;44.91;100736.69;3598465;40;20036;-72
2021/06/30 10:39:48;;;;;;;2.35;1.30;;;;;;;19.05;45.02;100735.13;3590920;40;20327;-72
2021/06/30 10:42:24;;;;;;;3.03;1.50;;;;;;;19.08;45.28;100743.94;3600293;40;20133;-72
2021/06/30 10:44:57;;;;;;;2.80;1.33;;;;;;;19.08;44.88;100735.63;3591538;40;20339;-72
2021/06/30 10:47:30;;;;;;;2.60;1.30;;;;;;;19.08;44.81;100738.41;3590698;40;20055;-71
2021/06/30 10:50:22;;;;;;;2.42;1.17;;;;;;;19.06;45.23;100743.28;3598012;39;20045;-72
2021/06/30 10:52:52;;;;;;;2.17;1.13;;;;;;;19.05;45.30;100738.78;3582382;40;20142;-71
2021/06/30 10:55:51;;;;;;;1.88;0.90;;;;;;;19.04;45.15;100739.81;3591713;40;20424;-72
2021/06/30 10:58:21;;;;;;;2.25;1.00;;;;;;;19.09;45.19;100736.50;3574220;40;20418;-71
2021/06/30 11:01:08;;;;;;;1.50;0.90;;;;;;;19.14;44.67;100750.63;3591691;40;20129;-71
2021/06/30 11:03:39;;;;;;;1.60;0.98;;;;;;;19.13;44.52;100730.34;3582816;40;20087;-72
2021/06/30 11:06:28;;;;;;;2.00;1.20;;;;;;;19.14;44.15;100748.72;3596868;40;20048;-71
2021/06/30 11:08:59;;;;;;;1.67;1.02;;;;;;;19.15;44.66;100742.13;3591394;40;20064;-72
2021/06/30 11:11:50;;;;;;;2.15;1.15;;;;;;;19.18;44.48;100738.13;3591552;40;20061;-71
2021/06/30 11:14:19;;;;;;;2.72;1.23;;;;;;;19.17;44.75;100733.63;3591924;40;20141;-72
2021/06/30 11:16:56;;;;;;;2.15;1.30;;;;;;;19.23;44.14;100734.75;3582021;40;20056;-72
2021/06/30 11:19:39;;;;;;;1.95;1.17;;;;;;;19.23;44.02;100734.75;3586335;40;20068;-72
2021/06/30 11:22:09;;;;;;;2.38;1.10;;;;;;;19.23;44.41;100737.53;3593829;40;20048;-72
2021/06/30 11:24:46;;;;;;;2.42;1.23;;;;;;;19.29;43.67;100740.38;3591908;40;20059;-72
2021/06/30 11:27:38;;;;;;;1.73;1.05;;;;;;;19.29;43.90;100742.31;3582004;40;20052;-72
2021/06/30 11:30:10;;;;;;;2.88;1.38;;;;;;;19.30;44.13;100742.13;3591978;40;20071;-71
2021/06/30 11:32:52;;;;;;;4.07;1.80;;;;;;;19.36;43.91;100751.56;3582568;40;20062;-72
2021/06/30 11:35:26;;;;;;;2.77;1.60;;;;;;;19.36;43.96;100748.78;3591248;40;20052;-72
2021/06/30 11:38:23;;;;;;;2.95;1.58;;;;;;;19.33;44.09;100750.06;3591566;40;20283;-71
2021/06/30 11:41:01;;;;;;;2.22;1.20;;;;;;;19.35;44.14;100744.31;3578932;40;20049;-72
2021/06/30 11:43:32;;;;;;;2.20;1.20;;;;;;;19.34;43.96;100754.56;3601148;40;20446;-71
2021/06/30 11:46:05;;;;;;;1.50;0.90;;;;;;;19.36;43.84;100759.88;3601835;40;20063;-71
2021/06/30 11:48:37;;;;;;;1.63;1.00;;;;;;;19.36;44.08;100757.97;3600816;40;20052;-72
2021/06/30 11:51:07;;;;;;;1.67;0.90;;;;;;;19.33;44.15;100761.16;3601482;39;20083;-71
2021/06/30 11:53:45;;;;;;;0.95;0.80;;;;;;;19.35;43.83;100752.66;3574584;40;20316;-71
2021/06/30 11:56:35;;;;;;;0.70;0.70;;;;;;;19.34;43.70;100754.56;3592241;40;20063;-72
2021/06/30 11:59:05;;;;;;;0.95;0.75;;;;;;;19.29;44.11;100754.25;3582321;40;20051;-71